sensor_id;sensor_type;location;lat;lon;timestamp;pressure;altitude;pressure_sealevel;temperature;humidity
80128;BME280;69440;52.118;5.408;2023-06-14T00:02:06;101637.22;;;20.83;43.16
80128;BME280;69440;52.118;5.408;2023-06-14T00:04:35;101647.13;;;20.84;43.37
80128;BME280;69440;52.118;5.408;2023-06-14T00:07:02;101638.81;;;20.85;43.19
80128;BME280;69440;52.118;5.408;2023-06-14T00:09:29;101643.78;;;20.80;43.87
80128;BME280;69440;52.118;5.408;2023-06-14T00:11:56;101647.66;;;20.77;43.85
80128;BME280;69440;52.118;5.408;2023-06-14T00:14:22;101641.59;;;20.74;43.39
80128;BME280;69440;52.118;5.408;2023-06-14T00:16:48;101637.88;;;20.75;43.62
80128;BME280;69440;52.118;5.408;2023-06-14T00:19:15;101641.75;;;20.72;43.41
80128;BME280;69440;52.118;5.408;2023-06-14T00:21:43;101639.28;;;20.69;43.36
80128;BME280;69440;52.118;5.408;2023-06-14T00:24:09;101642.03;;;20.69;43.37
80128;BME280;69440;52.118;5.408;2023-06-14T00:26:36;101648.22;;;20.71;43.66
80128;BME280;69440;52.118;5.408;2023-06-14T00:29:02;101656.28;;;20.73;43.31
80128;BME280;69440;52.118;5.408;2023-06-14T00:31:29;101649.06;;;20.72;44.12
80128;BME280;69440;52.118;5.408;2023-06-14T00:33:55;101653.09;;;20.68;43.92
80128;BME280;69440;52.118;5.408;2023-06-14T00:36:22;101651.22;;;20.68;42.90
80128;BME280;69440;52.118;5.408;2023-06-14T00:38:48;101647.91;;;20.65;43.07
80128;BME280;69440;52.118;5.408;2023-06-14T00:41:15;101641.84;;;20.61;43.20
80128;BME280;69440;52.118;5.408;2023-06-14T00:43:41;101641.97;;;20.60;43.05
80128;BME280;69440;52.118;5.408;2023-06-14T00:46:08;101648.44;;;20.59;43.23
80128;BME280;69440;52.118;5.408;2023-06-14T00:48:36;101652.59;;;20.53;43.65
80128;BME280;69440;52.118;5.408;2023-06-14T00:51:03;101646.50;;;20.50;43.78
80128;BME280;69440;52.118;5.408;2023-06-14T00:53:30;101642.91;;;20.49;43.76
80128;BME280;69440;52.118;5.408;2023-06-14T00:56:00;101644.03;;;20.46;44.28
80128;BME280;69440;52.118;5.408;2023-06-14T00:58:27;101650.16;;;20.39;44.69
80128;BME280;69440;52.118;5.408;2023-06-14T01:00:53;101648.56;;;20.36;44.16
80128;BME280;69440;52.118;5.408;2023-06-14T01:03:20;101642.09;;;20.37;44.37
80128;BME280;69440;52.118;5.408;2023-06-14T01:05:55;101649.69;;;20.34;44.85
80128;BME280;69440;52.118;5.408;2023-06-14T01:08:38;101654.81;;;20.27;45.19
80128;BME280;69440;52.118;5.408;2023-06-14T01:11:16;101658.69;;;20.25;45.37
80128;BME280;69440;52.118;5.408;2023-06-14T01:13:46;101647.53;;;20.16;45.40
80128;BME280;69440;52.118;5.408;2023-06-14T01:16:13;101650.81;;;20.10;45.33
80128;BME280;69440;52.118;5.408;2023-06-14T01:18:40;101649.06;;;20.09;45.07
80128;BME280;69440;52.118;5.408;2023-06-14T01:21:28;101645.34;;;20.10;44.82
80128;BME280;69440;52.118;5.408;2023-06-14T01:23:55;101649.06;;;20.09;44.66
80128;BME280;69440;52.118;5.408;2023-06-14T01:26:23;101652.22;;;20.05;44.98
80128;BME280;69440;52.118;5.408;2023-06-14T01:28:50;101647.75;;;20.04;44.87
80128;BME280;69440;52.118;5.408;2023-06-14T01:31:22;101648.75;;;20.03;44.90
80128;BME280;69440;52.118;5.408;2023-06-14T01:33:50;101646.28;;;20.00;44.80
80128;BME280;69440;52.118;5.408;2023-06-14T01:36:19;101654.13;;;19.93;45.88
80128;BME280;69440;52.118;5.408;2023-06-14T01:38:48;101654.50;;;19.89;45.72
80128;BME280;69440;52.118;5.408;2023-06-14T01:41:17;101649.44;;;19.84;45.47
80128;BME280;69440;52.118;5.408;2023-06-14T01:43:45;101650.69;;;19.80;45.98
80128;BME280;69440;52.118;5.408;2023-06-14T01:46:14;101648.63;;;19.72;46.00
80128;BME280;69440;52.118;5.408;2023-06-14T01:48:42;101659.06;;;19.67;46.38
80128;BME280;69440;52.118;5.408;2023-06-14T01:51:08;101664.19;;;19.61;46.88
80128;BME280;69440;52.118;5.408;2023-06-14T01:53:35;101652.75;;;19.56;46.37
80128;BME280;69440;52.118;5.408;2023-06-14T01:56:02;101651.66;;;19.47;47.04
80128;BME280;69440;52.118;5.408;2023-06-14T01:58:29;101654.03;;;19.40;47.67
80128;BME280;69440;52.118;5.408;2023-06-14T02:00:56;101653.53;;;19.35;48.76
80128;BME280;69440;52.118;5.408;2023-06-14T02:03:23;101648.47;;;19.31;48.62
80128;BME280;69440;52.118;5.408;2023-06-14T02:05:50;101655.41;;;19.23;49.30
80128;BME280;69440;52.118;5.408;2023-06-14T02:08:16;101647.47;;;19.20;49.14
80128;BME280;69440;52.118;5.408;2023-06-14T02:10:43;101653.31;;;19.16;48.88
80128;BME280;69440;52.118;5.408;2023-06-14T02:13:09;101655.44;;;19.12;48.65
80128;BME280;69440;52.118;5.408;2023-06-14T02:15:36;101649.25;;;19.10;48.83
80128;BME280;69440;52.118;5.408;2023-06-14T02:18:03;101647.03;;;19.04;49.81
80128;BME280;69440;52.118;5.408;2023-06-14T02:20:30;101649.34;;;18.98;49.46
80128;BME280;69440;52.118;5.408;2023-06-14T02:22:57;101642.81;;;19.00;50.03
80128;BME280;69440;52.118;5.408;2023-06-14T02:25:23;101643.28;;;18.94;49.01
80128;BME280;69440;52.118;5.408;2023-06-14T02:27:50;101650.72;;;18.92;49.47
80128;BME280;69440;52.118;5.408;2023-06-14T02:30:16;101649.50;;;18.85;49.69
80128;BME280;69440;52.118;5.408;2023-06-14T02:32:43;101647.16;;;18.80;50.32
80128;BME280;69440;52.118;5.408;2023-06-14T02:35:10;101649.50;;;18.74;50.34
80128;BME280;69440;52.118;5.408;2023-06-14T02:37:36;101652.97;;;18.76;50.42
80128;BME280;69440;52.118;5.408;2023-06-14T02:40:04;101657.19;;;18.69;50.65
80128;BME280;69440;52.118;5.408;2023-06-14T02:42:30;101653.94;;;18.64;52.57
80128;BME280;69440;52.118;5.408;2023-06-14T02:44:57;101663.31;;;18.59;51.09
80128;BME280;69440;52.118;5.408;2023-06-14T02:47:23;101661.56;;;18.58;50.98
80128;BME280;69440;52.118;5.408;2023-06-14T02:49:50;101660.09;;;18.54;50.92
80128;BME280;69440;52.118;5.408;2023-06-14T02:52:17;101658.72;;;18.49;51.20
80128;BME280;69440;52.118;5.408;2023-06-14T02:54:43;101672.09;;;18.41;52.18
80128;BME280;69440;52.118;5.408;2023-06-14T02:57:10;101667.97;;;18.35;52.85
80128;BME280;69440;52.118;5.408;2023-06-14T02:59:37;101662.25;;;18.27;52.70
80128;BME280;69440;52.118;5.408;2023-06-14T03:02:04;101671.78;;;18.21;53.51
80128;BME280;69440;52.118;5.408;2023-06-14T03:04:31;101680.53;;;18.14;54.20
80128;BME280;69440;52.118;5.408;2023-06-14T03:07:03;101670.88;;;18.10;54.08
80128;BME280;69440;52.118;5.408;2023-06-14T03:09:36;101686.91;;;18.02;54.46
80128;BME280;69440;52.118;5.408;2023-06-14T03:12:06;101682.19;;;17.92;55.06
80128;BME280;69440;52.118;5.408;2023-06-14T03:14:33;101686.97;;;17.89;54.57
80128;BME280;69440;52.118;5.408;2023-06-14T03:16:59;101682.88;;;17.83;55.37
80128;BME280;69440;52.118;5.408;2023-06-14T03:19:26;101684.97;;;17.80;54.87
80128;BME280;69440;52.118;5.408;2023-06-14T03:21:53;101694.22;;;17.77;54.84
80128;BME280;69440;52.118;5.408;2023-06-14T03:24:24;101692.69;;;17.73;54.92
80128;BME280;69440;52.118;5.408;2023-06-14T03:26:51;101698.59;;;17.67;55.55
80128;BME280;69440;52.118;5.408;2023-06-14T03:29:17;101698.69;;;17.65;54.92
80128;BME280;69440;52.118;5.408;2023-06-14T03:32:01;101705.00;;;17.66;54.86
80128;BME280;69440;52.118;5.408;2023-06-14T03:34:27;101699.38;;;17.56;56.10
80128;BME280;69440;52.118;5.408;2023-06-14T03:36:54;101701.59;;;17.51;56.03
80128;BME280;69440;52.118;5.408;2023-06-14T03:39:20;101699.97;;;17.49;55.87
80128;BME280;69440;52.118;5.408;2023-06-14T03:41:47;101702.81;;;17.47;55.47
80128;BME280;69440;52.118;5.408;2023-06-14T03:44:16;101703.88;;;17.45;56.03
80128;BME280;69440;52.118;5.408;2023-06-14T03:46:44;101712.13;;;17.43;56.61
80128;BME280;69440;52.118;5.408;2023-06-14T03:49:11;101705.72;;;17.44;56.06
80128;BME280;69440;52.118;5.408;2023-06-14T03:51:38;101707.69;;;17.42;55.95
80128;BME280;69440;52.118;5.408;2023-06-14T03:54:06;101712.25;;;17.42;56.27
80128;BME280;69440;52.118;5.408;2023-06-14T03:56:53;101717.56;;;17.43;55.98
80128;BME280;69440;52.118;5.408;2023-06-14T03:59:19;101716.69;;;17.43;56.30
80128;BME280;69440;52.118;5.408;2023-06-14T04:01:46;101715.06;;;17.40;56.43
80128;BME280;69440;52.118;5.408;2023-06-14T04:04:13;101724.22;;;17.39;56.69
80128;BME280;69440;52.118;5.408;2023-06-14T04:06:39;101724.22;;;17.39;56.14
80128;BME280;69440;52.118;5.408;2023-06-14T04:09:08;101721.38;;;17.41;56.24
80128;BME280;69440;52.118;5.408;2023-06-14T04:11:34;101727.47;;;17.44;55.87
80128;BME280;69440;52.118;5.408;2023-06-14T04:14:02;101729.22;;;17.45;55.80
80128;BME280;69440;52.118;5.408;2023-06-14T04:16:28;101732.03;;;17.44;55.77
80128;BME280;69440;52.118;5.408;2023-06-14T04:18:55;101736.16;;;17.49;56.17
80128;BME280;69440;52.118;5.408;2023-06-14T04:21:22;101734.19;;;17.51;56.54
80128;BME280;69440;52.118;5.408;2023-06-14T04:23:50;101734.97;;;17.53;56.37
80128;BME280;69440;52.118;5.408;2023-06-14T04:26:19;101739.53;;;17.53;56.10
80128;BME280;69440;52.118;5.408;2023-06-14T04:28:46;101739.19;;;17.57;57.09
80128;BME280;69440;52.118;5.408;2023-06-14T04:31:13;101738.09;;;17.60;55.42
80128;BME280;69440;52.118;5.408;2023-06-14T04:33:39;101739.59;;;17.64;55.36
80128;BME280;69440;52.118;5.408;2023-06-14T04:36:10;101742.13;;;17.67;55.07
80128;BME280;69440;52.118;5.408;2023-06-14T04:38:38;101742.88;;;17.69;55.79
80128;BME280;69440;52.118;5.408;2023-06-14T04:41:05;101740.91;;;17.71;54.90
80128;BME280;69440;52.118;5.408;2023-06-14T04:43:32;101748.75;;;17.76;55.26
80128;BME280;69440;52.118;5.408;2023-06-14T04:46:05;101747.53;;;17.80;54.12
80128;BME280;69440;52.118;5.408;2023-06-14T04:48:32;101750.66;;;17.86;53.51
80128;BME280;69440;52.118;5.408;2023-06-14T04:50:58;101746.81;;;17.89;54.80
80128;BME280;69440;52.118;5.408;2023-06-14T04:53:25;101757.59;;;17.90;53.86
80128;BME280;69440;52.118;5.408;2023-06-14T04:55:55;101753.53;;;17.96;53.63
80128;BME280;69440;52.118;5.408;2023-06-14T04:58:21;101757.88;;;17.98;54.48
80128;BME280;69440;52.118;5.408;2023-06-14T05:00:48;101753.94;;;18.03;52.86
80128;BME280;69440;52.118;5.408;2023-06-14T05:03:14;101750.78;;;18.09;52.97
80128;BME280;69440;52.118;5.408;2023-06-14T05:05:41;101759.44;;;18.14;52.50
80128;BME280;69440;52.118;5.408;2023-06-14T05:08:07;101747.69;;;18.13;52.64
80128;BME280;69440;52.118;5.408;2023-06-14T05:10:35;101747.34;;;18.18;52.62
80128;BME280;69440;52.118;5.408;2023-06-14T05:13:02;101757.00;;;18.22;53.55
80128;BME280;69440;52.118;5.408;2023-06-14T05:15:29;101757.88;;;18.22;52.36
80128;BME280;69440;52.118;5.408;2023-06-14T05:17:55;101756.66;;;18.26;53.06
80128;BME280;69440;52.118;5.408;2023-06-14T05:20:23;101761.97;;;18.28;52.81
80128;BME280;69440;52.118;5.408;2023-06-14T05:22:53;101755.41;;;18.30;52.20
80128;BME280;69440;52.118;5.408;2023-06-14T05:25:20;101761.28;;;18.37;51.94
80128;BME280;69440;52.118;5.408;2023-06-14T05:27:47;101763.66;;;18.42;52.17
80128;BME280;69440;52.118;5.408;2023-06-14T05:30:14;101766.13;;;18.45;51.85
80128;BME280;69440;52.118;5.408;2023-06-14T05:32:41;101762.19;;;18.49;52.34
80128;BME280;69440;52.118;5.408;2023-06-14T05:35:08;101771.72;;;18.54;51.70
80128;BME280;69440;52.118;5.408;2023-06-14T05:37:34;101766.03;;;18.57;51.60
80128;BME280;69440;52.118;5.408;2023-06-14T05:40:01;101773.75;;;18.64;51.52
80128;BME280;69440;52.118;5.408;2023-06-14T05:42:31;101778.34;;;18.63;50.69
80128;BME280;69440;52.118;5.408;2023-06-14T05:44:58;101779.75;;;18.69;51.40
80128;BME280;69440;52.118;5.408;2023-06-14T05:47:24;101774.81;;;18.74;51.49
80128;BME280;69440;52.118;5.408;2023-06-14T05:49:52;101771.59;;;18.80;51.53
80128;BME280;69440;52.118;5.408;2023-06-14T05:52:18;101774.94;;;18.83;51.11
80128;BME280;69440;52.118;5.408;2023-06-14T05:54:45;101780.88;;;18.88;51.44
80128;BME280;69440;52.118;5.408;2023-06-14T05:57:11;101784.09;;;18.93;50.01
80128;BME280;69440;52.118;5.408;2023-06-14T05:59:38;101783.78;;;18.98;50.65
80128;BME280;69440;52.118;5.408;2023-06-14T06:02:05;101792.56;;;19.02;49.65
80128;BME280;69440;52.118;5.408;2023-06-14T06:04:31;101797.66;;;19.06;49.83
80128;BME280;69440;52.118;5.408;2023-06-14T06:06:58;101794.31;;;19.14;50.11
80128;BME280;69440;52.118;5.408;2023-06-14T06:09:25;101794.69;;;19.20;49.15
80128;BME280;69440;52.118;5.408;2023-06-14T06:11:51;101789.59;;;19.27;49.86
80128;BME280;69440;52.118;5.408;2023-06-14T06:14:19;101795.31;;;19.35;50.43
80128;BME280;69440;52.118;5.408;2023-06-14T06:16:46;101799.28;;;19.42;49.61
80128;BME280;69440;52.118;5.408;2023-06-14T06:19:13;101800.75;;;19.46;49.82
80128;BME280;69440;52.118;5.408;2023-06-14T06:21:39;101790.34;;;19.51;49.12
80128;BME280;69440;52.118;5.408;2023-06-14T06:24:06;101794.72;;;19.54;48.43
80128;BME280;69440;52.118;5.408;2023-06-14T06:26:32;101800.66;;;19.59;49.74
80128;BME280;69440;52.118;5.408;2023-06-14T06:28:59;101800.31;;;19.64;49.05
80128;BME280;69440;52.118;5.408;2023-06-14T06:31:25;101803.41;;;19.70;48.72
80128;BME280;69440;52.118;5.408;2023-06-14T06:33:54;101801.88;;;19.77;49.06
80128;BME280;69440;52.118;5.408;2023-06-14T06:36:21;101802.50;;;19.81;48.07
80128;BME280;69440;52.118;5.408;2023-06-14T06:38:48;101797.53;;;19.86;48.88
80128;BME280;69440;52.118;5.408;2023-06-14T06:41:14;101804.22;;;19.93;48.24
80128;BME280;69440;52.118;5.408;2023-06-14T06:43:41;101805.84;;;19.96;47.13
80128;BME280;69440;52.118;5.408;2023-06-14T06:46:07;101803.97;;;19.96;47.00
80128;BME280;69440;52.118;5.408;2023-06-14T06:48:34;101809.91;;;20.01;47.07
80128;BME280;69440;52.118;5.408;2023-06-14T06:51:00;101813.84;;;20.08;47.12
80128;BME280;69440;52.118;5.408;2023-06-14T06:53:27;101812.59;;;20.12;46.95
80128;BME280;69440;52.118;5.408;2023-06-14T06:56:05;101814.06;;;20.16;46.94
80128;BME280;69440;52.118;5.408;2023-06-14T06:58:31;101816.44;;;20.21;47.09
80128;BME280;69440;52.118;5.408;2023-06-14T07:00:58;101822.13;;;20.29;46.95
80128;BME280;69440;52.118;5.408;2023-06-14T07:03:24;101826.06;;;20.36;46.10
80128;BME280;69440;52.118;5.408;2023-06-14T07:05:51;101824.84;;;20.40;45.51
80128;BME280;69440;52.118;5.408;2023-06-14T07:08:17;101826.56;;;20.41;44.94
80128;BME280;69440;52.118;5.408;2023-06-14T07:10:44;101823.56;;;20.44;46.22
80128;BME280;69440;52.118;5.408;2023-06-14T07:13:10;101825.78;;;20.51;45.55
80128;BME280;69440;52.118;5.408;2023-06-14T07:15:38;101828.28;;;20.54;45.07
80128;BME280;69440;52.118;5.408;2023-06-14T07:18:05;101831.34;;;20.60;45.61
80128;BME280;69440;52.118;5.408;2023-06-14T07:20:33;101827.22;;;20.66;45.25
80128;BME280;69440;52.118;5.408;2023-06-14T07:22:59;101826.56;;;20.73;45.34
80128;BME280;69440;52.118;5.408;2023-06-14T07:25:26;101835.84;;;20.82;44.78
80128;BME280;69440;52.118;5.408;2023-06-14T07:27:53;101835.31;;;20.88;44.69
80128;BME280;69440;52.118;5.408;2023-06-14T07:30:19;101838.09;;;20.98;44.74
80128;BME280;69440;52.118;5.408;2023-06-14T07:32:46;101843.03;;;21.04;44.49
80128;BME280;69440;52.118;5.408;2023-06-14T07:35:12;101840.91;;;21.07;44.45
80128;BME280;69440;52.118;5.408;2023-06-14T07:37:39;101838.66;;;21.13;44.38
80128;BME280;69440;52.118;5.408;2023-06-14T07:40:06;101846.19;;;21.20;44.55
80128;BME280;69440;52.118;5.408;2023-06-14T07:42:34;101846.81;;;21.24;43.54
80128;BME280;69440;52.118;5.408;2023-06-14T07:45:05;101852.31;;;21.33;44.63
80128;BME280;69440;52.118;5.408;2023-06-14T07:47:32;101847.78;;;21.44;43.31
80128;BME280;69440;52.118;5.408;2023-06-14T07:49:59;101855.44;;;21.50;43.68
80128;BME280;69440;52.118;5.408;2023-06-14T07:52:25;101850.44;;;21.55;43.64
80128;BME280;69440;52.118;5.408;2023-06-14T07:54:52;101858.09;;;21.61;43.20
80128;BME280;69440;52.118;5.408;2023-06-14T07:57:18;101853.06;;;21.66;42.61
80128;BME280;69440;52.118;5.408;2023-06-14T07:59:46;101854.22;;;21.73;42.80
80128;BME280;69440;52.118;5.408;2023-06-14T08:02:12;101862.78;;;21.80;41.53
80128;BME280;69440;52.118;5.408;2023-06-14T08:04:39;101863.38;;;21.83;42.06
80128;BME280;69440;52.118;5.408;2023-06-14T08:07:06;101858.34;;;21.88;41.97
80128;BME280;69440;52.118;5.408;2023-06-14T08:09:34;101857.06;;;21.92;41.56
80128;BME280;69440;52.118;5.408;2023-06-14T08:12:00;101856.97;;;22.04;42.64
80128;BME280;69440;52.118;5.408;2023-06-14T08:14:27;101856.72;;;22.16;41.70
80128;BME280;69440;52.118;5.408;2023-06-14T08:16:55;101862.38;;;22.24;40.77
80128;BME280;69440;52.118;5.408;2023-06-14T08:19:21;101860.06;;;22.29;39.15
80128;BME280;69440;52.118;5.408;2023-06-14T08:21:48;101857.03;;;22.33;40.03
80128;BME280;69440;52.118;5.408;2023-06-14T08:24:14;101858.38;;;22.38;40.51
80128;BME280;69440;52.118;5.408;2023-06-14T08:26:41;101853.91;;;22.47;40.47
80128;BME280;69440;52.118;5.408;2023-06-14T08:29:07;101856.50;;;22.48;38.84
80128;BME280;69440;52.118;5.408;2023-06-14T08:31:34;101854.63;;;22.49;39.73
80128;BME280;69440;52.118;5.408;2023-06-14T08:34:01;101867.03;;;22.53;39.56
80128;BME280;69440;52.118;5.408;2023-06-14T08:36:30;101859.53;;;22.55;38.87
80128;BME280;69440;52.118;5.408;2023-06-14T08:38:57;101860.81;;;22.60;38.71
80128;BME280;69440;52.118;5.408;2023-06-14T08:41:23;101857.53;;;22.67;38.66
80128;BME280;69440;52.118;5.408;2023-06-14T08:43:53;101843.53;;;22.70;37.52
80128;BME280;69440;52.118;5.408;2023-06-14T08:46:19;101851.75;;;22.79;39.02
80128;BME280;69440;52.118;5.408;2023-06-14T08:48:47;101843.38;;;22.90;37.40
80128;BME280;69440;52.118;5.408;2023-06-14T08:51:18;101847.16;;;22.99;36.73
80128;BME280;69440;52.118;5.408;2023-06-14T08:53:46;101847.00;;;23.01;37.20
80128;BME280;69440;52.118;5.408;2023-06-14T08:56:14;101850.75;;;23.09;36.65
80128;BME280;69440;52.118;5.408;2023-06-14T08:58:43;101855.78;;;23.14;37.59
80128;BME280;69440;52.118;5.408;2023-06-14T09:01:11;101848.84;;;23.19;36.44
80128;BME280;69440;52.118;5.408;2023-06-14T09:03:43;101853.00;;;23.23;36.31
80128;BME280;69440;52.118;5.408;2023-06-14T09:06:11;101858.50;;;23.33;36.74
80128;BME280;69440;52.118;5.408;2023-06-14T09:08:42;101851.53;;;23.39;35.59
80128;BME280;69440;52.118;5.408;2023-06-14T09:11:11;101861.91;;;23.45;35.06
80128;BME280;69440;52.118;5.408;2023-06-14T09:13:39;101861.91;;;23.45;35.58
80128;BME280;69440;52.118;5.408;2023-06-14T09:16:07;101863.34;;;23.49;35.44
80128;BME280;69440;52.118;5.408;2023-06-14T09:18:40;101866.38;;;23.56;35.28
80128;BME280;69440;52.118;5.408;2023-06-14T09:21:17;101862.75;;;23.55;34.85
80128;BME280;69440;52.118;5.408;2023-06-14T09:23:45;101867.34;;;23.54;34.93
80128;BME280;69440;52.118;5.408;2023-06-14T09:26:16;101859.13;;;23.54;35.35
80128;BME280;69440;52.118;5.408;2023-06-14T09:28:44;101858.88;;;23.58;34.91
80128;BME280;69440;52.118;5.408;2023-06-14T09:31:17;101861.91;;;23.64;36.66
80128;BME280;69440;52.118;5.408;2023-06-14T09:33:48;101855.78;;;23.70;35.27
80128;BME280;69440;52.118;5.408;2023-06-14T09:36:22;101861.06;;;23.81;35.85
80128;BME280;69440;52.118;5.408;2023-06-14T09:38:56;101864.81;;;23.90;34.98
80128;BME280;69440;52.118;5.408;2023-06-14T09:41:36;101864.22;;;23.96;34.19
80128;BME280;69440;52.118;5.408;2023-06-14T09:44:05;101859.13;;;24.01;32.83
80128;BME280;69440;52.118;5.408;2023-06-14T09:46:37;101857.63;;;24.07;33.03
80128;BME280;69440;52.118;5.408;2023-06-14T09:49:05;101858.19;;;24.10;32.70
80128;BME280;69440;52.118;5.408;2023-06-14T09:51:33;101862.19;;;24.16;33.64
80128;BME280;69440;52.118;5.408;2023-06-14T09:54:01;101852.94;;;24.17;32.31
80128;BME280;69440;52.118;5.408;2023-06-14T09:56:37;101865.66;;;24.18;34.51
80128;BME280;69440;52.118;5.408;2023-06-14T09:59:09;101856.81;;;24.24;34.22
80128;BME280;69440;52.118;5.408;2023-06-14T10:01:43;101840.28;;;24.34;33.48
80128;BME280;69440;52.118;5.408;2023-06-14T10:04:10;101842.16;;;24.33;32.61
80128;BME280;69440;52.118;5.408;2023-06-14T10:06:39;101844.22;;;24.31;33.61
80128;BME280;69440;52.118;5.408;2023-06-14T10:09:08;101847.91;;;24.40;34.13
80128;BME280;69440;52.118;5.408;2023-06-14T10:11:36;101846.50;;;24.54;35.03
80128;BME280;69440;52.118;5.408;2023-06-14T10:14:05;101844.69;;;24.62;33.03
80128;BME280;69440;52.118;5.408;2023-06-14T10:16:41;101842.19;;;24.69;32.69
80128;BME280;69440;52.118;5.408;2023-06-14T10:19:25;101854.44;;;24.74;30.70
80128;BME280;69440;52.118;5.408;2023-06-14T10:22:23;101849.94;;;24.73;30.04
80128;BME280;69440;52.118;5.408;2023-06-14T10:24:54;101851.34;;;24.77;30.01
80128;BME280;69440;52.118;5.408;2023-06-14T10:27:20;101848.00;;;24.84;29.94
80128;BME280;69440;52.118;5.408;2023-06-14T10:32:20;101846.72;;;24.96;30.12
80128;BME280;69440;52.118;5.408;2023-06-14T10:34:59;101841.91;;;24.98;31.54
80128;BME280;69440;52.118;5.408;2023-06-14T10:37:26;101843.69;;;24.99;30.43
80128;BME280;69440;52.118;5.408;2023-06-14T10:39:53;101835.25;;;25.00;30.66
80128;BME280;69440;52.118;5.408;2023-06-14T10:42:20;101840.81;;;25.08;32.12
80128;BME280;69440;52.118;5.408;2023-06-14T10:44:53;101834.22;;;25.19;32.97
80128;BME280;69440;52.118;5.408;2023-06-14T10:50:03;101835.44;;;25.25;31.94
80128;BME280;69440;52.118;5.408;2023-06-14T10:52:33;101844.59;;;25.33;30.60
80128;BME280;69440;52.118;5.408;2023-06-14T10:55:27;101832.41;;;25.36;31.42
80128;BME280;69440;52.118;5.408;2023-06-14T10:58:00;101846.41;;;25.43;31.33
80128;BME280;69440;52.118;5.408;2023-06-14T11:00:29;101844.22;;;25.54;31.64
80128;BME280;69440;52.118;5.408;2023-06-14T11:05:58;101839.56;;;25.73;30.65
80128;BME280;69440;52.118;5.408;2023-06-14T11:08:56;101835.94;;;25.72;30.68
80128;BME280;69440;52.118;5.408;2023-06-14T11:11:32;101830.97;;;25.76;29.70
80128;BME280;69440;52.118;5.408;2023-06-14T11:14:02;101835.09;;;25.80;30.47
80128;BME280;69440;52.118;5.408;2023-06-14T11:16:29;101842.19;;;25.90;30.89
80128;BME280;69440;52.118;5.408;2023-06-14T11:19:00;101837.91;;;25.96;32.09
80128;BME280;69440;52.118;5.408;2023-06-14T11:21:26;101836.06;;;26.05;30.98
80128;BME280;69440;52.118;5.408;2023-06-14T11:23:57;101827.13;;;26.11;30.65
80128;BME280;69440;52.118;5.408;2023-06-14T11:26:32;101837.13;;;26.20;31.55
80128;BME280;69440;52.118;5.408;2023-06-14T11:29:01;101838.69;;;26.30;29.66
80128;BME280;69440;52.118;5.408;2023-06-14T11:31:28;101830.25;;;26.32;31.54
80128;BME280;69440;52.118;5.408;2023-06-14T11:33:57;101824.13;;;26.38;30.49
80128;BME280;69440;52.118;5.408;2023-06-14T11:36:31;101821.03;;;26.57;30.42
80128;BME280;69440;52.118;5.408;2023-06-14T11:39:03;101823.81;;;26.66;30.06
80128;BME280;69440;52.118;5.408;2023-06-14T11:41:42;101826.41;;;26.67;29.02
80128;BME280;69440;52.118;5.408;2023-06-14T11:44:09;101810.19;;;26.72;29.80
80128;BME280;69440;52.118;5.408;2023-06-14T11:46:36;101812.78;;;26.82;30.54
80128;BME280;69440;52.118;5.408;2023-06-14T11:49:03;101816.56;;;26.97;30.78
80128;BME280;69440;52.118;5.408;2023-06-14T11:51:35;101817.81;;;27.03;30.07
80128;BME280;69440;52.118;5.408;2023-06-14T11:54:02;101808.97;;;27.15;28.78
80128;BME280;69440;52.118;5.408;2023-06-14T11:56:30;101810.00;;;27.22;28.76
80128;BME280;69440;52.118;5.408;2023-06-14T11:58:58;101817.41;;;27.30;29.36
80128;BME280;69440;52.118;5.408;2023-06-14T12:01:25;101811.72;;;27.23;28.11
80128;BME280;69440;52.118;5.408;2023-06-14T12:03:53;101819.00;;;27.25;28.91
80128;BME280;69440;52.118;5.408;2023-06-14T12:06:30;101818.44;;;27.21;29.39
80128;BME280;69440;52.118;5.408;2023-06-14T12:09:06;101808.94;;;27.23;29.09
80128;BME280;69440;52.118;5.408;2023-06-14T12:11:38;101818.63;;;27.28;29.03
80128;BME280;69440;52.118;5.408;2023-06-14T12:14:06;101808.06;;;27.39;29.71
80128;BME280;69440;52.118;5.408;2023-06-14T12:16:34;101817.72;;;27.43;28.65
80128;BME280;69440;52.118;5.408;2023-06-14T12:19:27;101808.19;;;27.54;29.95
80128;BME280;69440;52.118;5.408;2023-06-14T12:21:54;101815.44;;;27.55;29.12
80128;BME280;69440;52.118;5.408;2023-06-14T12:24:20;101815.97;;;27.50;28.52
80128;BME280;69440;52.118;5.408;2023-06-14T12:26:47;101809.22;;;27.53;28.76
80128;BME280;69440;52.118;5.408;2023-06-14T12:29:13;101812.88;;;27.62;30.03
80128;BME280;69440;52.118;5.408;2023-06-14T12:31:40;101814.56;;;27.71;29.76
80128;BME280;69440;52.118;5.408;2023-06-14T12:34:07;101816.59;;;27.77;28.93
80128;BME280;69440;52.118;5.408;2023-06-14T12:36:34;101811.75;;;27.79;28.21
80128;BME280;69440;52.118;5.408;2023-06-14T12:39:02;101811.03;;;27.85;29.16
80128;BME280;69440;52.118;5.408;2023-06-14T12:41:28;101802.47;;;27.72;27.88
80128;BME280;69440;52.118;5.408;2023-06-14T12:43:55;101820.63;;;27.66;28.65
80128;BME280;69440;52.118;5.408;2023-06-14T12:46:21;101821.13;;;27.70;28.64
80128;BME280;69440;52.118;5.408;2023-06-14T12:48:48;101814.06;;;27.67;27.71
80128;BME280;69440;52.118;5.408;2023-06-14T12:51:14;101805.78;;;27.59;27.77
80128;BME280;69440;52.118;5.408;2023-06-14T12:53:41;101813.88;;;27.61;27.98
80128;BME280;69440;52.118;5.408;2023-06-14T12:56:07;101807.16;;;27.63;28.54
80128;BME280;69440;52.118;5.408;2023-06-14T12:58:34;101814.41;;;27.64;28.07
80128;BME280;69440;52.118;5.408;2023-06-14T13:01:00;101810.25;;;27.60;27.11
80128;BME280;69440;52.118;5.408;2023-06-14T13:03:27;101813.88;;;27.61;26.18
80128;BME280;69440;52.118;5.408;2023-06-14T13:05:53;101826.84;;;27.68;27.45